createdAt,value
2019-05-01T00:01:58.208Z,7.20
2019-05-01T00:04:42.840Z,7.75
2019-05-01T00:07:16.819Z,7.55
2019-05-01T00:09:43.284Z,7.78
2019-05-01T00:12:09.643Z,7.10
2019-05-01T00:14:35.748Z,7.70
2019-05-01T00:17:01.927Z,7.83
2019-05-01T00:19:28.008Z,7.67
2019-05-01T00:21:54.086Z,7.65
2019-05-01T00:24:20.164Z,8.78
2019-05-01T00:26:46.222Z,8.05
2019-05-01T00:29:12.312Z,8.33
2019-05-01T00:31:38.400Z,8.25
2019-05-01T00:34:04.451Z,8.60
2019-05-01T00:36:30.537Z,8.05
2019-05-01T00:38:56.615Z,8.35
2019-05-01T00:41:22.809Z,8.78
2019-05-01T00:43:48.869Z,8.15
2019-05-01T00:46:14.960Z,8.30
2019-05-01T00:48:41.025Z,7.30
2019-05-01T00:51:07.181Z,7.42
2019-05-01T00:53:33.246Z,7.95
2019-05-01T00:56:18.005Z,8.20
2019-05-01T00:59:04.204Z,7.87
2019-05-01T01:01:34.681Z,7.90
2019-05-01T01:04:00.754Z,8.60
2019-05-01T01:06:26.912Z,8.10
2019-05-01T01:08:53.085Z,7.90
2019-05-01T01:11:19.136Z,7.55
2019-05-01T01:13:45.196Z,8.25
2019-05-01T01:16:11.276Z,8.13
2019-05-01T01:18:37.343Z,8.50
2019-05-01T01:21:03.651Z,7.30
2019-05-01T01:23:29.813Z,8.40
2019-05-01T01:25:55.890Z,7.90
2019-05-01T01:28:22.267Z,8.55
2019-05-01T01:30:56.203Z,8.13
2019-05-01T01:33:16.639Z,8.38
2019-05-01T01:35:42.740Z,8.10
2019-05-01T01:38:08.976Z,7.75
2019-05-01T01:40:35.257Z,8.38
2019-05-01T01:43:20.064Z,8.00
2019-05-01T01:45:48.221Z,7.65
2019-05-01T01:48:15.805Z,8.23
2019-05-01T01:50:43.279Z,8.00
2019-05-01T01:53:12.260Z,8.10
2019-05-01T01:55:38.547Z,7.95
2019-05-01T01:58:05.616Z,8.65
2019-05-01T02:00:45.709Z,7.58
2019-05-01T02:03:11.873Z,7.92
2019-05-01T02:05:40.082Z,8.40
2019-05-01T02:08:08.840Z,8.65
2019-05-01T02:10:42.577Z,8.75
2019-05-01T02:13:02.897Z,8.68
2019-05-01T02:15:28.970Z,8.63
2019-05-01T02:17:55.076Z,6.80
2019-05-01T02:20:21.957Z,8.85
2019-05-01T02:22:48.017Z,7.50
2019-05-01T02:25:15.197Z,8.50
2019-05-01T02:27:43.668Z,7.37
2019-05-01T02:30:11.762Z,8.73
2019-05-01T02:32:38.628Z,9.30
2019-05-01T02:35:06.003Z,9.20
2019-05-01T02:37:33.176Z,8.00
2019-05-01T02:40:02.752Z,9.08
2019-05-01T02:42:31.325Z,9.63
2019-05-01T02:45:00.008Z,9.23
2019-05-01T02:47:29.956Z,10.43
2019-05-01T02:50:02.812Z,9.70
2019-05-01T02:52:31.798Z,9.00
2019-05-01T02:55:03.168Z,10.25
2019-05-01T02:57:30.448Z,9.83
2019-05-01T02:59:57.410Z,9.68
2019-05-01T03:02:26.002Z,10.45
2019-05-01T03:04:53.948Z,10.25
2019-05-01T03:07:21.525Z,9.53
2019-05-01T03:09:47.890Z,8.95
2019-05-01T03:12:16.240Z,10.32
2019-05-01T03:14:45.203Z,10.10
2019-05-01T03:17:30.409Z,10.75
2019-05-01T03:19:58.474Z,10.45
2019-05-01T03:22:26.639Z,9.78
2019-05-01T03:24:53.412Z,10.85
2019-05-01T03:27:19.576Z,10.88
2019-05-01T03:29:46.044Z,10.98
2019-05-01T03:32:17.834Z,11.93
2019-05-01T03:34:40.380Z,11.60
2019-05-01T03:37:06.470Z,11.43
2019-05-01T03:39:32.641Z,11.22
2019-05-01T03:41:58.903Z,12.10
2019-05-01T03:44:25.277Z,12.35
2019-05-01T03:46:51.635Z,12.43
2019-05-01T03:49:17.758Z,10.85
2019-05-01T03:51:43.823Z,12.60
2019-05-01T03:54:10.810Z,12.33
2019-05-01T03:56:37.086Z,12.18
2019-05-01T03:59:03.943Z,11.65
2019-05-01T04:01:34.686Z,12.23
2019-05-01T04:04:02.854Z,11.75
2019-05-01T04:06:29.051Z,12.40
2019-05-01T04:08:55.566Z,12.68
2019-05-01T04:11:22.043Z,12.20
2019-05-01T04:13:48.233Z,12.93
2019-05-01T04:16:15.634Z,14.38
2019-05-01T04:18:41.907Z,11.90
2019-05-01T04:21:08.480Z,11.35
2019-05-01T04:23:36.246Z,13.18
2019-05-01T04:26:02.491Z,11.85
2019-05-01T04:28:40.311Z,11.60
2019-05-01T04:31:08.974Z,11.40
2019-05-01T04:33:37.138Z,12.55
2019-05-01T04:36:05.323Z,12.75
2019-05-01T04:38:31.890Z,11.73
2019-05-01T04:40:58.846Z,12.25
2019-05-01T04:43:25.114Z,13.32
2019-05-01T04:45:51.272Z,13.13
2019-05-01T04:48:17.341Z,12.95
2019-05-01T04:50:43.418Z,12.90
2019-05-01T04:53:09.726Z,14.18
2019-05-01T04:55:37.012Z,12.95
2019-05-01T04:58:03.668Z,12.47
2019-05-01T05:00:30.240Z,11.33
2019-05-01T05:03:04.796Z,12.55
2019-05-01T05:05:26.496Z,12.82
2019-05-01T05:07:53.456Z,12.00
2019-05-01T05:10:19.584Z,13.38
2019-05-01T05:12:53.362Z,12.53
2019-05-01T05:15:27.436Z,12.05
2019-05-01T05:17:53.889Z,12.58
2019-05-01T05:20:19.952Z,12.07
2019-05-01T05:22:46.529Z,14.35
2019-05-01T05:25:12.696Z,13.83
2019-05-01T05:27:39.467Z,13.43
2019-05-01T05:30:05.661Z,13.05
2019-05-01T05:32:34.854Z,13.58
2019-05-01T05:35:03.049Z,13.13
2019-05-01T05:37:45.335Z,13.62
2019-05-01T05:40:11.511Z,12.80
2019-05-01T05:42:37.771Z,12.93
2019-05-01T05:45:05.462Z,13.68
2019-05-01T05:47:41.466Z,15.38
2019-05-01T05:50:07.995Z,18.05
2019-05-01T05:52:38.267Z,17.77
2019-05-01T05:55:08.470Z,21.07
2019-05-01T05:57:40.134Z,20.08
2019-05-01T06:00:33.801Z,20.90
2019-05-01T06:03:30.742Z,24.50
2019-05-01T06:06:11.646Z,26.07
2019-05-01T06:08:41.609Z,25.00
2019-05-01T06:11:11.557Z,24.47
2019-05-01T06:13:56.479Z,24.55
2019-05-01T06:16:32.128Z,25.10
2019-05-01T06:19:17.390Z,25.40
2019-05-01T06:21:58.375Z,27.05
2019-05-01T06:24:29.373Z,24.65
2019-05-01T06:26:55.892Z,25.52
2019-05-01T06:29:22.396Z,24.80
2019-05-01T06:31:48.618Z,25.57
2019-05-01T06:34:14.791Z,24.82
2019-05-01T06:36:44.266Z,23.40
2019-05-01T06:39:11.762Z,25.65
2019-05-01T06:41:42.618Z,21.73
2019-05-01T06:44:10.896Z,23.50
2019-05-01T06:46:41.681Z,24.45
2019-05-01T06:49:10.181Z,25.02
2019-05-01T06:51:41.143Z,22.55
2019-05-01T06:54:11.346Z,22.73
2019-05-01T06:56:39.252Z,21.82
2019-05-01T06:59:05.821Z,22.20
2019-05-01T07:01:33.772Z,22.60
2019-05-01T07:04:03.983Z,21.20
2019-05-01T07:06:31.027Z,20.95
2019-05-01T07:08:56.410Z,21.70
2019-05-01T07:11:22.977Z,20.12
2019-05-01T07:13:51.831Z,24.35
2019-05-01T07:16:19.210Z,23.65
2019-05-01T07:18:45.785Z,22.95
2019-05-01T07:21:11.963Z,21.10
2019-05-01T07:23:38.086Z,22.80
2019-05-01T07:26:04.320Z,22.02
2019-05-01T07:28:34.474Z,22.40
2019-05-01T07:31:01.388Z,19.45
2019-05-01T07:33:28.471Z,23.20
2019-05-01T07:35:54.942Z,22.62
2019-05-01T07:38:21.203Z,19.20
2019-05-01T07:40:47.794Z,21.23
2019-05-01T07:43:18.957Z,23.38
2019-05-01T07:45:48.891Z,22.20
2019-05-01T07:48:18.792Z,20.70
2019-05-01T07:50:45.569Z,22.60
2019-05-01T07:53:11.984Z,23.92
2019-05-01T07:55:38.430Z,21.37
2019-05-01T07:58:10.180Z,20.15
2019-05-01T08:00:47.771Z,19.87
2019-05-01T08:03:13.953Z,19.17
2019-05-01T08:05:40.931Z,20.37
2019-05-01T08:08:09.572Z,19.30
2019-05-01T08:10:35.818Z,19.52
2019-05-01T08:13:01.983Z,20.27
2019-05-01T08:15:32.374Z,19.45
2019-05-01T08:17:58.209Z,18.90
2019-05-01T08:20:38.512Z,19.85
2019-05-01T08:23:07.667Z,20.57
2019-05-01T08:25:33.190Z,20.97
2019-05-01T08:28:02.349Z,19.73
2019-05-01T08:30:39.473Z,20.82
2019-05-01T08:33:14.620Z,19.15
2019-05-01T08:35:38.372Z,20.88
2019-05-01T08:38:04.536Z,21.40
2019-05-01T08:40:30.620Z,19.00
2019-05-01T08:42:56.700Z,19.80
2019-05-01T08:45:24.663Z,20.75
2019-05-01T08:48:09.569Z,21.60
2019-05-01T08:50:36.290Z,21.27
2019-05-01T08:53:02.535Z,21.00
2019-05-01T08:55:28.615Z,20.90
2019-05-01T08:57:54.684Z,22.27
2019-05-01T09:00:20.859Z,21.57
2019-05-01T09:02:46.920Z,20.03
2019-05-01T09:05:27.758Z,21.70
2019-05-01T09:07:41.190Z,21.10
2019-05-01T09:10:09.289Z,24.20
2019-05-01T09:12:35.519Z,23.57
2019-05-01T09:15:07.324Z,23.40
2019-05-01T09:17:33.033Z,24.10
2019-05-01T09:19:59.299Z,25.67
2019-05-01T09:22:25.393Z,28.47
2019-05-01T09:24:51.864Z,26.83
2019-05-01T09:27:34.665Z,26.50
2019-05-01T09:30:04.400Z,28.90
2019-05-01T09:32:30.780Z,27.73
2019-05-01T09:34:58.410Z,27.10
2019-05-01T09:37:24.847Z,28.50
2019-05-01T09:39:50.928Z,29.70
2019-05-01T09:42:22.627Z,30.10
2019-05-01T09:44:45.080Z,29.90
2019-05-01T09:47:14.400Z,29.50
2019-05-01T09:49:40.765Z,31.40
2019-05-01T09:52:08.715Z,31.57
2019-05-01T09:54:42.865Z,30.20
2019-05-01T09:57:07.772Z,30.97
2019-05-01T09:59:33.843Z,28.43
2019-05-01T10:02:03.014Z,30.20
2019-05-01T10:04:30.175Z,28.90
2019-05-01T10:06:56.727Z,30.70
2019-05-01T10:09:22.891Z,28.90
2019-05-01T10:11:48.944Z,29.27
2019-05-01T10:14:15.031Z,27.80
2019-05-01T10:16:41.093Z,30.00
2019-05-01T10:19:07.168Z,29.60
2019-05-01T10:21:33.258Z,29.80
2019-05-01T10:23:59.438Z,30.37
2019-05-01T10:26:27.432Z,27.07
2019-05-01T10:29:07.500Z,25.10
2019-05-01T10:31:52.080Z,25.10
2019-05-01T10:34:38.622Z,21.03
2019-05-01T10:37:03.321Z,24.67
2019-05-01T10:39:30.281Z,25.50
2019-05-01T10:41:56.581Z,25.80
2019-05-01T10:44:22.723Z,23.97
2019-05-01T10:46:48.779Z,25.03
2019-05-01T10:49:14.858Z,23.53
2019-05-01T10:51:40.947Z,22.47
2019-05-01T10:54:07.035Z,23.40
2019-05-01T10:56:33.135Z,25.83
2019-05-01T10:58:59.329Z,26.67
2019-05-01T11:01:27.518Z,26.40
2019-05-01T11:03:53.599Z,27.07
2019-05-01T11:06:19.667Z,27.27
2019-05-01T11:08:45.925Z,26.40
2019-05-01T11:14:00.908Z,24.47
2019-05-01T11:16:27.086Z,35.17
2019-05-01T11:18:54.575Z,27.20
2019-05-01T11:21:20.840Z,26.50
2019-05-01T11:23:46.943Z,26.07
2019-05-01T11:26:13.008Z,26.83
2019-05-01T11:28:39.098Z,27.50
2019-05-01T11:31:06.560Z,26.43
2019-05-01T11:33:40.483Z,29.67
2019-05-01T11:36:09.849Z,27.10
2019-05-01T11:38:38.084Z,26.87
2019-05-01T11:41:11.897Z,28.40
2019-05-01T11:43:37.966Z,28.03
2019-05-01T11:46:04.150Z,26.00
2019-05-01T11:48:31.997Z,28.00
2019-05-01T11:50:58.298Z,30.20
2019-05-01T11:53:24.377Z,28.27
2019-05-01T11:55:50.565Z,28.70
2019-05-01T11:58:16.968Z,28.93
2019-05-01T12:00:44.601Z,26.47
2019-05-01T12:03:10.655Z,25.80
2019-05-01T12:05:36.823Z,26.17
2019-05-01T12:08:03.085Z,26.10
2019-05-01T12:10:29.605Z,26.73
2019-05-01T12:12:55.685Z,21.87
2019-05-01T12:15:21.763Z,24.50
2019-05-01T12:17:49.037Z,25.40
2019-05-01T12:20:15.915Z,25.63
2019-05-01T12:22:42.017Z,25.70
2019-05-01T12:25:08.683Z,24.97
2019-05-01T12:27:34.774Z,23.77
2019-05-01T12:30:01.060Z,25.57
2019-05-01T12:32:27.142Z,24.70
2019-05-01T12:34:53.257Z,23.60
2019-05-01T12:37:21.277Z,22.67
2019-05-01T12:39:47.380Z,24.53
2019-05-01T12:42:18.136Z,25.43
2019-05-01T12:44:44.312Z,23.10
2019-05-01T12:47:14.870Z,24.13
2019-05-01T12:49:42.704Z,23.03
2019-05-01T12:52:27.389Z,23.07
2019-05-01T12:55:13.573Z,22.23
2019-05-01T12:57:39.760Z,21.50
2019-05-01T13:00:09.117Z,23.90
2019-05-01T13:02:35.452Z,22.83
2019-05-01T13:05:01.588Z,23.10
2019-05-01T13:07:28.065Z,23.40
2019-05-01T13:09:54.152Z,22.60
2019-05-01T13:12:20.711Z,24.13
2019-05-01T13:14:46.916Z,24.20
2019-05-01T13:17:13.048Z,25.00
2019-05-01T13:19:42.182Z,24.03
2019-05-01T13:22:08.332Z,22.57
2019-05-01T13:24:36.404Z,24.57
2019-05-01T13:27:05.143Z,23.20
2019-05-01T13:29:39.021Z,23.00
2019-05-01T13:32:09.793Z,23.53
2019-05-01T13:34:35.855Z,23.70
2019-05-01T13:37:03.401Z,24.60
2019-05-01T13:39:29.807Z,26.30
2019-05-01T13:41:55.925Z,22.30
2019-05-01T13:44:22.052Z,21.50
2019-05-01T13:46:48.288Z,23.93
2019-05-01T13:49:14.454Z,22.00
2019-05-01T13:51:40.632Z,20.90
2019-05-01T13:54:07.995Z,20.80
2019-05-01T13:56:34.152Z,21.03
2019-05-01T13:59:00.255Z,20.30
2019-05-01T14:01:26.551Z,22.17
2019-05-01T14:03:52.864Z,20.43
2019-05-01T14:06:19.031Z,18.30
2019-05-01T14:08:45.130Z,17.87
2019-05-01T14:11:11.300Z,21.70
2019-05-01T14:13:37.355Z,20.00
2019-05-01T14:16:03.612Z,20.73
2019-05-01T14:18:29.692Z,21.27
2019-05-01T14:21:03.492Z,20.70
2019-05-01T14:23:34.557Z,21.00
2019-05-01T14:26:04.940Z,21.40
2019-05-01T14:28:32.715Z,21.47
2019-05-01T14:30:58.919Z,21.67
2019-05-01T14:33:25.037Z,21.57
2019-05-01T14:35:51.105Z,21.17
2019-05-01T14:38:17.196Z,24.40
2019-05-01T14:40:43.306Z,22.20
2019-05-01T14:43:09.420Z,21.60
2019-05-01T14:45:35.574Z,24.77
2019-05-01T14:48:01.862Z,22.27
2019-05-01T14:50:27.953Z,21.53
2019-05-01T14:52:54.043Z,22.40
2019-05-01T14:55:20.169Z,21.50
2019-05-01T14:57:46.265Z,19.77
2019-05-01T15:00:14.931Z,21.70
2019-05-01T15:02:41.017Z,22.87
2019-05-01T15:05:07.278Z,23.00
2019-05-01T15:07:43.466Z,22.40
2019-05-01T15:10:01.530Z,21.97
2019-05-01T15:12:27.636Z,23.43
2019-05-01T15:15:10.725Z,24.23
2019-05-01T15:17:41.700Z,20.57
2019-05-01T15:20:08.073Z,21.97
2019-05-01T15:22:34.166Z,22.40
2019-05-01T15:25:00.279Z,20.27
2019-05-01T15:27:26.457Z,21.20
2019-05-01T15:29:52.558Z,18.10
2019-05-01T15:32:18.740Z,20.27
2019-05-01T15:34:44.856Z,20.50
2019-05-01T15:37:11.005Z,22.23
2019-05-01T15:39:39.025Z,24.40
2019-05-01T15:42:13.274Z,20.30
2019-05-01T15:44:41.243Z,22.73
2019-05-01T15:47:07.330Z,23.10
2019-05-01T15:49:33.422Z,23.47
2019-05-01T15:51:59.580Z,20.37
2019-05-01T15:54:25.872Z,21.17
2019-05-01T15:56:51.968Z,22.20
2019-05-01T15:59:18.074Z,20.47
2019-05-01T16:01:44.186Z,22.07
2019-05-01T16:04:10.344Z,23.10
2019-05-01T16:06:36.525Z,20.00
2019-05-01T16:09:04.998Z,24.63
2019-05-01T16:11:41.829Z,26.60
2019-05-01T16:14:07.916Z,27.70
2019-05-01T16:16:34.328Z,27.50
2019-05-01T16:19:00.391Z,21.60
2019-05-01T16:21:26.475Z,21.30
2019-05-01T16:23:52.528Z,20.90
2019-05-01T16:26:18.716Z,21.73
2019-05-01T16:28:44.775Z,23.40
2019-05-01T16:31:10.894Z,25.33
2019-05-01T16:33:37.397Z,23.87
2019-05-01T16:36:03.547Z,22.70
2019-05-01T16:38:48.152Z,19.30
2019-05-01T16:41:14.412Z,34.77
2019-05-01T16:43:40.584Z,24.97
2019-05-01T16:46:06.685Z,23.53
2019-05-01T16:48:32.885Z,25.97
2019-05-01T16:50:58.974Z,19.97
2019-05-01T16:53:25.156Z,21.00
2019-05-01T16:55:51.419Z,20.77
2019-05-01T16:58:17.700Z,21.30
2019-05-01T17:00:53.255Z,21.50
2019-05-01T17:03:21.222Z,20.60
2019-05-01T17:05:55.050Z,19.77
2019-05-01T17:08:36.013Z,20.50
2019-05-01T17:10:57.467Z,20.50
2019-05-01T17:13:23.710Z,17.73
2019-05-01T17:15:51.101Z,20.33
2019-05-01T17:18:17.460Z,22.90
2019-05-01T17:20:43.619Z,19.00
2019-05-01T17:23:29.572Z,21.07
2019-05-01T17:25:57.434Z,20.83
2019-05-01T17:28:23.512Z,19.00
2019-05-01T17:30:51.485Z,20.03
2019-05-01T17:33:20.661Z,20.97
2019-05-01T17:35:45.627Z,21.63
2019-05-01T17:38:11.713Z,18.47
2019-05-01T17:40:37.783Z,19.40
2019-05-01T17:43:08.162Z,21.13
2019-05-01T17:45:34.930Z,20.70
2019-05-01T17:47:59.911Z,18.20
2019-05-01T17:50:25.997Z,19.37
2019-05-01T17:52:52.064Z,19.87
2019-05-01T17:55:18.143Z,21.43
2019-05-01T17:57:44.229Z,21.40
2019-05-01T18:00:18.248Z,21.40
2019-05-01T18:02:48.991Z,20.77
2019-05-01T18:05:22.700Z,21.67
2019-05-01T18:07:48.880Z,23.80
2019-05-01T18:10:15.049Z,24.20
2019-05-01T18:12:41.108Z,23.70
2019-05-01T18:15:07.583Z,23.13
2019-05-01T18:17:33.673Z,27.10
2019-05-01T18:20:19.626Z,23.23
2019-05-01T18:23:08.446Z,23.70
2019-05-01T18:25:41.552Z,22.37
2019-05-01T18:28:29.933Z,22.10
2019-05-01T18:30:56.459Z,20.93
2019-05-01T18:33:25.930Z,20.90
2019-05-01T18:35:51.037Z,23.53
2019-05-01T18:38:22.394Z,23.83
2019-05-01T18:40:51.510Z,21.30
2019-05-01T18:43:17.624Z,23.13
2019-05-01T18:45:46.723Z,20.97
2019-05-01T18:48:13.027Z,21.57
2019-05-01T18:50:39.239Z,21.47
2019-05-01T18:53:06.782Z,18.77
2019-05-01T18:55:33.672Z,33.37
2019-05-01T18:58:00.105Z,25.47
2019-05-01T19:00:46.540Z,20.33
2019-05-01T19:03:12.747Z,22.20
2019-05-01T19:05:43.245Z,22.80
2019-05-01T19:08:08.107Z,27.20
2019-05-01T19:10:34.292Z,26.13
2019-05-01T19:13:00.816Z,26.70
2019-05-01T19:15:29.090Z,23.60
2019-05-01T19:17:55.226Z,21.70
2019-05-01T19:20:21.345Z,22.57
2019-05-01T19:22:47.722Z,25.40
2019-05-01T19:25:16.420Z,23.50
2019-05-01T19:27:42.430Z,25.03
2019-05-01T19:30:15.048Z,25.10
2019-05-01T19:32:37.788Z,25.10
2019-05-01T19:35:05.588Z,23.23
2019-05-01T19:37:31.771Z,24.63
2019-05-01T19:39:57.846Z,23.70
2019-05-01T19:42:24.039Z,24.10
2019-05-01T19:44:51.077Z,23.63
2019-05-01T19:47:18.387Z,23.87
2019-05-01T19:49:44.647Z,23.60
2019-05-01T19:52:10.751Z,22.93
2019-05-01T19:54:36.912Z,22.70
2019-05-01T19:57:03.262Z,23.80
2019-05-01T19:59:29.498Z,24.97
2019-05-01T20:01:55.602Z,23.07
2019-05-01T20:04:21.807Z,20.83
2019-05-01T20:06:48.099Z,23.83
2019-05-01T20:09:14.212Z,21.83
2019-05-01T20:11:40.308Z,23.37
2019-05-01T20:14:06.504Z,23.27
2019-05-01T20:16:32.635Z,22.47
2019-05-01T20:18:58.753Z,24.23
2019-05-01T20:21:24.856Z,23.70
2019-05-01T20:23:51.000Z,23.07
2019-05-01T20:26:17.256Z,21.67
2019-05-01T20:28:43.316Z,22.67
2019-05-01T20:31:09.436Z,25.60
2019-05-01T20:33:39.064Z,24.50
2019-05-01T20:36:05.258Z,22.40
2019-05-01T20:38:31.549Z,23.77
2019-05-01T20:40:58.218Z,25.33
2019-05-01T20:43:24.427Z,23.53
2019-05-01T20:45:51.296Z,22.63
2019-05-01T20:48:18.562Z,23.20
2019-05-01T20:50:45.660Z,25.07
2019-05-01T20:53:11.840Z,23.42
2019-05-01T20:55:38.528Z,22.80
2019-05-01T20:58:18.094Z,23.98
2019-05-01T21:00:48.069Z,23.18
2019-05-01T21:03:14.236Z,21.10
2019-05-01T21:05:54.593Z,21.60
2019-05-01T21:08:29.031Z,23.02
2019-05-01T21:11:11.076Z,22.07
2019-05-01T21:13:38.112Z,23.00
2019-05-01T21:16:04.322Z,24.10
2019-05-01T21:18:30.530Z,23.00
2019-05-01T21:20:56.681Z,23.42
2019-05-01T21:23:23.307Z,22.58
2019-05-01T21:25:49.633Z,24.27
2019-05-01T21:28:15.751Z,23.47
2019-05-01T21:30:43.930Z,22.40
2019-05-01T21:33:11.405Z,24.70
2019-05-01T21:35:37.836Z,23.75
2019-05-01T21:38:04.027Z,22.95
2019-05-01T21:40:38.625Z,21.42
2019-05-01T21:42:58.128Z,21.70
2019-05-01T21:45:24.261Z,23.35
2019-05-01T21:48:10.226Z,21.68
2019-05-01T21:50:36.283Z,23.35
2019-05-01T21:53:06.559Z,22.48
2019-05-01T21:55:32.080Z,23.22
2019-05-01T21:57:58.369Z,22.55
2019-05-01T22:00:26.742Z,24.90
2019-05-01T22:02:52.831Z,24.20
2019-05-01T22:05:18.967Z,23.85
2019-05-01T22:07:45.136Z,23.50
2019-05-01T22:10:11.311Z,22.62
2019-05-01T22:12:37.440Z,24.55
2019-05-01T22:15:11.065Z,22.55
2019-05-01T22:17:54.113Z,23.35
2019-05-01T22:20:22.109Z,22.82
2019-05-01T22:22:50.197Z,23.55
2019-05-01T22:28:18.842Z,25.75
2019-05-01T22:30:47.756Z,23.60
2019-05-01T22:33:13.929Z,22.48
2019-05-01T22:35:42.215Z,25.25
2019-05-01T22:38:08.287Z,22.48
2019-05-01T22:40:36.865Z,21.82
2019-05-01T22:43:03.150Z,21.70
2019-05-01T22:45:29.241Z,21.87
2019-05-01T22:47:55.428Z,22.17
2019-05-01T22:50:21.633Z,22.27
2019-05-01T22:52:47.711Z,21.77
2019-05-01T22:55:14.080Z,20.97
2019-05-01T22:57:40.157Z,21.45
2019-05-01T23:00:10.237Z,19.32
2019-05-01T23:02:38.214Z,19.90
2019-05-01T23:05:06.981Z,21.35
2019-05-01T23:07:33.060Z,19.20
2019-05-01T23:10:03.028Z,18.77
2019-05-01T23:12:27.348Z,19.15
2019-05-01T23:14:53.788Z,20.00
2019-05-01T23:17:21.982Z,19.23
2019-05-01T23:19:48.323Z,18.85
2019-05-01T23:22:14.401Z,19.45
2019-05-01T23:24:40.476Z,19.05
2019-05-01T23:27:06.555Z,17.10
2019-05-01T23:29:32.623Z,13.05
2019-05-01T23:31:58.810Z,13.88
2019-05-01T23:34:26.146Z,15.43
2019-05-01T23:36:53.049Z,16.45
2019-05-01T23:39:19.212Z,16.05
2019-05-01T23:41:47.074Z,18.98
2019-05-01T23:44:13.261Z,17.50
2019-05-01T23:46:39.339Z,19.35
2019-05-01T23:49:05.482Z,19.25
2019-05-01T23:51:31.549Z,21.85
2019-05-01T23:53:57.648Z,19.87
2019-05-01T23:56:23.700Z,20.23
2019-05-01T23:58:49.752Z,18.92
